createdAt,value
2019-02-21T00:01:00.728Z,4.10
2019-02-21T00:03:29.918Z,4.00
2019-02-21T00:05:59.290Z,4.00
2019-02-21T00:08:28.371Z,3.90
2019-02-21T00:10:57.560Z,3.80
2019-02-21T00:13:27.074Z,3.80
2019-02-21T00:15:56.134Z,3.70
2019-02-21T00:18:25.219Z,3.70
2019-02-21T00:20:54.329Z,3.60
2019-02-21T00:23:23.415Z,3.60
2019-02-21T00:25:52.470Z,3.50
2019-02-21T00:28:21.521Z,3.40
2019-02-21T00:30:50.589Z,3.40
2019-02-21T00:33:19.729Z,3.30
2019-02-21T00:35:48.800Z,3.30
2019-02-21T00:38:18.142Z,3.20
2019-02-21T00:40:47.313Z,3.20
2019-02-21T00:43:17.127Z,3.20
2019-02-21T00:45:46.137Z,3.20
2019-02-21T00:48:15.395Z,3.10
2019-02-21T00:50:44.485Z,3.10
2019-02-21T00:53:13.565Z,3.10
2019-02-21T00:55:42.625Z,3.00
2019-02-21T00:58:11.748Z,3.00
2019-02-21T01:00:46.589Z,3.00
2019-02-21T01:03:11.642Z,3.00
2019-02-21T01:05:41.043Z,3.00
2019-02-21T01:08:10.115Z,2.90
2019-02-21T01:10:39.214Z,2.90
2019-02-21T01:13:08.213Z,2.90
2019-02-21T01:15:37.298Z,2.80
2019-02-21T01:18:06.735Z,2.80
2019-02-21T01:20:35.807Z,2.70
2019-02-21T01:23:04.898Z,2.70
2019-02-21T01:25:33.912Z,2.60
2019-02-21T01:28:03.281Z,2.60
2019-02-21T01:30:32.703Z,2.50
2019-02-21T01:33:01.786Z,2.50
2019-02-21T01:35:30.884Z,2.40
2019-02-21T01:37:59.947Z,2.40
2019-02-21T01:40:29.009Z,2.30
2019-02-21T01:42:58.105Z,2.30
2019-02-21T01:45:27.192Z,2.30
2019-02-21T01:47:56.313Z,2.20
2019-02-21T01:50:25.396Z,2.20
2019-02-21T01:52:54.495Z,2.20
2019-02-21T01:55:24.186Z,2.20
2019-02-21T01:57:53.269Z,2.20
2019-02-21T02:00:22.325Z,2.20
2019-02-21T02:02:51.448Z,2.20
2019-02-21T02:05:20.578Z,2.20
2019-02-21T02:07:49.917Z,2.10
2019-02-21T02:10:19.013Z,2.10
2019-02-21T02:12:48.255Z,2.10
2019-02-21T02:15:17.322Z,2.10
2019-02-21T02:17:46.365Z,2.10
2019-02-21T02:20:15.489Z,2.10
2019-02-21T02:22:44.932Z,2.10
2019-02-21T02:25:14.167Z,2.00
2019-02-21T02:27:43.254Z,2.00
2019-02-21T02:30:12.379Z,2.00
2019-02-21T02:32:41.447Z,2.00
2019-02-21T02:35:10.644Z,2.00
2019-02-21T02:37:39.789Z,2.00
2019-02-21T02:40:09.096Z,2.00
2019-02-21T02:42:38.190Z,1.90
2019-02-21T02:45:07.528Z,1.90
2019-02-21T02:47:36.959Z,1.90
2019-02-21T02:50:07.149Z,1.90
2019-02-21T02:52:36.225Z,1.90
2019-02-21T02:55:05.438Z,1.90
2019-02-21T02:57:34.557Z,1.90
2019-02-21T03:00:03.703Z,2.00
2019-02-21T03:02:32.789Z,2.00
2019-02-21T03:05:01.905Z,2.00
2019-02-21T03:07:31.065Z,2.00
2019-02-21T03:10:00.470Z,1.90
2019-02-21T03:12:29.751Z,1.90
2019-02-21T03:14:58.837Z,1.90
2019-02-21T03:17:27.937Z,1.90
2019-02-21T03:19:57.008Z,2.00
2019-02-21T03:22:26.121Z,2.00
2019-02-21T03:24:55.257Z,2.00
2019-02-21T03:27:24.324Z,2.00
2019-02-21T03:29:53.430Z,2.10
2019-02-21T03:32:22.855Z,2.10
2019-02-21T03:34:51.963Z,2.10
2019-02-21T03:37:21.327Z,2.10
2019-02-21T03:39:50.408Z,2.00
2019-02-21T03:42:19.817Z,2.00
2019-02-21T03:44:48.967Z,2.00
2019-02-21T03:47:18.054Z,2.00
2019-02-21T03:49:47.208Z,1.90
2019-02-21T03:52:16.334Z,1.90
2019-02-21T03:54:45.546Z,1.90
2019-02-21T03:57:14.647Z,1.90
2019-02-21T03:59:43.847Z,1.90
2019-02-21T04:02:12.936Z,1.90
2019-02-21T04:04:42.033Z,1.90
2019-02-21T04:07:11.314Z,1.80
2019-02-21T04:09:40.774Z,1.90
2019-02-21T04:12:09.972Z,1.80
2019-02-21T04:14:39.299Z,1.90
2019-02-21T04:17:08.527Z,1.90
2019-02-21T04:19:37.654Z,1.80
2019-02-21T04:22:06.934Z,1.80
2019-02-21T04:24:36.029Z,1.80
2019-02-21T04:27:05.135Z,1.80
2019-02-21T04:29:34.501Z,1.80
2019-02-21T04:32:03.629Z,1.80
2019-02-21T04:34:32.985Z,1.80
2019-02-21T04:37:02.073Z,1.80
2019-02-21T04:39:31.195Z,1.80
2019-02-21T04:42:00.286Z,1.80
2019-02-21T04:44:29.446Z,1.80
2019-02-21T04:46:58.549Z,1.80
2019-02-21T04:49:28.177Z,1.80
2019-02-21T04:51:57.276Z,1.70
2019-02-21T04:54:26.364Z,1.70
2019-02-21T04:56:55.516Z,1.70
2019-02-21T04:59:24.609Z,1.60
2019-02-21T05:01:53.807Z,1.60
2019-02-21T05:04:22.909Z,1.60
2019-02-21T05:06:52.275Z,1.50
2019-02-21T05:09:21.393Z,1.50
2019-02-21T05:11:50.528Z,1.40
2019-02-21T05:14:19.602Z,1.40
2019-02-21T05:16:48.737Z,1.40
2019-02-21T05:19:18.164Z,1.30
2019-02-21T05:21:47.287Z,1.30
2019-02-21T05:24:16.409Z,1.30
2019-02-21T05:26:49.713Z,1.40
2019-02-21T05:29:18.801Z,1.40
2019-02-21T05:32:19.012Z,1.40
2019-02-21T05:35:07.258Z,1.50
2019-02-21T05:37:42.348Z,1.50
2019-02-21T05:40:42.663Z,1.40
2019-02-21T05:43:37.350Z,1.40
2019-02-21T05:46:19.074Z,1.40
2019-02-21T05:49:02.770Z,1.40
2019-02-21T05:52:00.053Z,1.40
2019-02-21T05:54:43.970Z,1.40
2019-02-21T05:57:20.497Z,1.40
2019-02-21T06:00:12.393Z,1.40
2019-02-21T06:02:59.685Z,1.40
2019-02-21T06:05:44.562Z,1.40
2019-02-21T06:08:40.048Z,1.40
2019-02-21T06:11:28.347Z,1.40
2019-02-21T06:14:15.213Z,1.30
2019-02-21T06:17:13.165Z,1.30
2019-02-21T06:19:55.978Z,1.30
2019-02-21T06:22:34.509Z,1.30
2019-02-21T06:25:30.512Z,1.30
2019-02-21T06:28:25.025Z,1.40
2019-02-21T06:31:05.932Z,1.40
2019-02-21T06:33:35.069Z,1.50
2019-02-21T06:36:04.145Z,1.50
2019-02-21T06:38:33.815Z,1.50
2019-02-21T06:41:03.163Z,1.60
2019-02-21T06:43:32.255Z,1.60
2019-02-21T06:46:01.373Z,1.60
2019-02-21T06:48:30.458Z,1.60
2019-02-21T06:50:59.697Z,1.60
2019-02-21T06:53:28.863Z,1.60
2019-02-21T06:55:58.285Z,1.70
2019-02-21T06:58:27.460Z,1.70
2019-02-21T07:00:56.589Z,1.70
2019-02-21T07:03:25.772Z,1.80
2019-02-21T07:05:54.907Z,1.80
2019-02-21T07:08:25.213Z,1.90
2019-02-21T07:11:05.465Z,2.00
2019-02-21T07:13:26.911Z,2.00
2019-02-21T07:15:58.472Z,2.20
2019-02-21T07:18:28.906Z,2.30
2019-02-21T07:20:57.912Z,2.40
2019-02-21T07:23:27.578Z,2.50
2019-02-21T07:26:00.045Z,2.70
2019-02-21T07:28:29.558Z,2.90
2019-02-21T07:30:58.677Z,3.20
2019-02-21T07:33:29.032Z,3.50
2019-02-21T07:35:58.271Z,3.80
2019-02-21T07:38:27.406Z,4.10
2019-02-21T07:40:56.605Z,4.50
2019-02-21T07:43:26.085Z,4.80
2019-02-21T07:45:55.230Z,5.00
2019-02-21T07:48:24.566Z,5.30
2019-02-21T07:50:53.688Z,5.50
2019-02-21T07:53:22.759Z,5.70
2019-02-21T07:55:51.864Z,5.80
2019-02-21T07:58:20.977Z,5.70
2019-02-21T08:00:50.321Z,5.70
2019-02-21T08:03:29.768Z,5.50
2019-02-21T08:05:50.237Z,5.40
2019-02-21T08:08:21.004Z,5.30
2019-02-21T08:10:50.217Z,5.20
2019-02-21T08:13:19.336Z,5.10
2019-02-21T08:15:48.429Z,5.00
2019-02-21T08:18:17.529Z,5.00
2019-02-21T08:20:46.892Z,5.00
2019-02-21T08:23:16.070Z,5.00
2019-02-21T08:25:45.421Z,5.00
2019-02-21T08:28:14.585Z,5.00
2019-02-21T08:30:43.652Z,5.00
2019-02-21T08:33:57.628Z,5.00
2019-02-21T08:36:17.677Z,5.00
2019-02-21T08:38:46.804Z,5.10
2019-02-21T08:41:15.910Z,5.20
2019-02-21T08:43:44.989Z,5.20
2019-02-21T08:46:14.087Z,5.20
2019-02-21T08:48:43.465Z,5.30
2019-02-21T08:51:12.549Z,5.40
2019-02-21T08:53:41.686Z,5.40
2019-02-21T08:56:10.768Z,5.50
2019-02-21T08:58:39.873Z,5.60
2019-02-21T09:01:09.372Z,5.60
2019-02-21T09:03:38.474Z,5.70
2019-02-21T09:06:07.670Z,5.80
2019-02-21T09:08:37.280Z,5.90
2019-02-21T09:11:07.118Z,6.00
2019-02-21T09:13:36.427Z,6.10
2019-02-21T09:16:05.616Z,6.20
2019-02-21T09:18:34.917Z,6.30
2019-02-21T09:21:04.065Z,6.20
2019-02-21T09:23:33.135Z,6.20
2019-02-21T09:26:02.806Z,6.30
2019-02-21T09:28:31.864Z,6.30
2019-02-21T09:31:00.952Z,6.30
2019-02-21T09:33:30.025Z,6.50
2019-02-21T09:35:59.137Z,6.60
2019-02-21T09:38:28.251Z,6.90
2019-02-21T09:40:57.356Z,7.00
2019-02-21T09:43:26.710Z,7.10
2019-02-21T09:45:55.918Z,7.10
2019-02-21T09:48:25.097Z,7.10
2019-02-21T09:50:54.272Z,7.10
2019-02-21T09:53:23.653Z,7.00
2019-02-21T09:55:52.742Z,7.00
2019-02-21T09:58:22.176Z,7.00
2019-02-21T10:00:51.372Z,7.00
2019-02-21T10:03:20.544Z,7.00
2019-02-21T10:05:49.924Z,6.90
2019-02-21T10:08:21.987Z,6.80
2019-02-21T10:10:51.326Z,6.70
2019-02-21T10:13:22.053Z,6.60
2019-02-21T10:15:51.139Z,6.50
2019-02-21T10:18:20.301Z,6.50
2019-02-21T10:20:49.782Z,6.60
2019-02-21T10:23:18.934Z,6.70
2019-02-21T10:25:48.425Z,6.90
2019-02-21T10:28:17.540Z,7.10
2019-02-21T10:31:05.801Z,7.30
2019-02-21T10:33:46.290Z,7.40
2019-02-21T10:36:06.293Z,7.60
2019-02-21T10:38:35.407Z,7.70
2019-02-21T10:41:04.914Z,7.80
2019-02-21T10:43:34.021Z,7.90
2019-02-21T10:46:03.103Z,8.00
2019-02-21T10:48:32.965Z,8.20
2019-02-21T10:51:02.060Z,8.40
2019-02-21T10:53:31.456Z,8.40
2019-02-21T10:56:00.903Z,8.50
2019-02-21T10:58:30.025Z,8.60
2019-02-21T11:00:59.593Z,8.70
2019-02-21T11:03:28.668Z,8.70
2019-02-21T11:05:58.088Z,8.80
2019-02-21T11:08:27.186Z,8.90
2019-02-21T11:10:56.290Z,8.90
2019-02-21T11:13:25.769Z,9.00
2019-02-21T11:15:55.004Z,9.10
2019-02-21T11:18:24.088Z,9.10
2019-02-21T11:20:53.260Z,9.20
2019-02-21T11:23:22.760Z,9.20
2019-02-21T11:25:51.873Z,9.30
2019-02-21T11:28:20.972Z,9.40
2019-02-21T11:30:50.149Z,9.50
2019-02-21T11:33:19.218Z,9.60
2019-02-21T11:35:48.387Z,9.70
2019-02-21T11:38:17.482Z,9.80
2019-02-21T11:40:46.565Z,9.80
2019-02-21T11:43:15.837Z,9.90
2019-02-21T11:45:53.595Z,10.00
2019-02-21T11:48:15.762Z,10.10
2019-02-21T11:50:44.913Z,10.00
2019-02-21T11:53:14.030Z,10.10
2019-02-21T11:55:43.127Z,10.00
2019-02-21T11:58:12.222Z,10.00
2019-02-21T12:00:41.416Z,10.00
2019-02-21T12:03:10.516Z,10.10
2019-02-21T12:05:39.977Z,10.20
2019-02-21T12:08:09.384Z,10.30
2019-02-21T12:10:38.508Z,10.20
2019-02-21T12:13:07.713Z,10.20
2019-02-21T12:15:36.786Z,10.10
2019-02-21T12:18:05.913Z,10.10
2019-02-21T12:20:35.098Z,10.10
2019-02-21T12:23:04.217Z,10.30
2019-02-21T12:25:33.420Z,10.30
2019-02-21T12:28:02.544Z,10.40
2019-02-21T12:30:33.414Z,10.50
2019-02-21T12:33:02.481Z,10.50
2019-02-21T12:35:32.024Z,10.50
2019-02-21T12:38:01.130Z,10.60
2019-02-21T12:40:30.238Z,10.60
2019-02-21T12:42:59.412Z,10.70
2019-02-21T12:45:30.138Z,10.80
2019-02-21T12:47:59.480Z,11.00
2019-02-21T12:50:28.640Z,11.20
2019-02-21T12:52:57.710Z,11.20
2019-02-21T12:55:31.430Z,11.20
2019-02-21T12:57:58.193Z,11.00
2019-02-21T13:00:27.273Z,11.00
2019-02-21T13:02:56.373Z,10.90
2019-02-21T13:05:25.482Z,10.90
2019-02-21T13:07:54.584Z,10.90
2019-02-21T13:10:23.702Z,10.90
2019-02-21T13:12:52.861Z,10.90
2019-02-21T13:15:22.538Z,10.90
2019-02-21T13:17:51.700Z,11.00
2019-02-21T13:20:20.777Z,11.10
2019-02-21T13:22:49.946Z,11.30
2019-02-21T13:25:19.384Z,11.40
2019-02-21T13:27:48.558Z,11.40
2019-02-21T13:30:17.649Z,11.50
2019-02-21T13:32:46.765Z,11.50
2019-02-21T13:35:16.385Z,11.40
2019-02-21T13:37:45.482Z,11.40
2019-02-21T13:40:14.871Z,11.30
2019-02-21T13:42:45.166Z,11.30
2019-02-21T13:45:17.148Z,11.30
2019-02-21T13:47:45.769Z,11.50
2019-02-21T13:50:15.834Z,11.60
2019-02-21T13:52:44.932Z,11.70
2019-02-21T13:55:14.293Z,11.70
2019-02-21T13:57:43.865Z,11.60
2019-02-21T14:00:15.401Z,11.50
2019-02-21T14:02:44.550Z,11.40
2019-02-21T14:05:13.793Z,11.30
2019-02-21T14:07:42.889Z,11.30
2019-02-21T14:10:12.088Z,11.10
2019-02-21T14:12:41.177Z,11.00
2019-02-21T14:15:13.453Z,10.90
2019-02-21T14:17:42.529Z,10.90
2019-02-21T14:20:11.742Z,10.80
2019-02-21T14:22:40.861Z,10.80
2019-02-21T14:25:10.245Z,10.90
2019-02-21T14:27:39.353Z,10.80
2019-02-21T14:30:10.903Z,10.80
2019-02-21T14:32:40.089Z,10.80
2019-02-21T14:35:10.317Z,10.80
2019-02-21T14:37:39.746Z,10.80
2019-02-21T14:40:09.813Z,10.90
2019-02-21T14:42:38.968Z,10.90
2019-02-21T14:45:12.148Z,10.90
2019-02-21T14:47:40.797Z,10.90
2019-02-21T14:50:10.421Z,10.80
2019-02-21T14:52:39.544Z,10.80
2019-02-21T14:55:09.905Z,10.70
2019-02-21T14:57:41.150Z,10.70
2019-02-21T15:00:14.255Z,10.60
2019-02-21T15:02:43.336Z,10.60
2019-02-21T15:05:12.422Z,10.50
2019-02-21T15:07:41.547Z,10.50
2019-02-21T15:10:10.961Z,10.50
2019-02-21T15:12:40.062Z,10.40
2019-02-21T15:15:10.158Z,10.40
2019-02-21T15:17:39.269Z,10.30
2019-02-21T15:20:10.198Z,10.30
2019-02-21T15:22:39.297Z,10.20
2019-02-21T15:25:09.277Z,10.20
2019-02-21T15:27:39.531Z,10.20
2019-02-21T15:30:12.166Z,10.30
2019-02-21T15:32:41.387Z,10.30
2019-02-21T15:35:10.725Z,10.30
2019-02-21T15:37:39.864Z,10.40
2019-02-21T15:40:09.666Z,10.40
2019-02-21T15:42:38.819Z,10.40
2019-02-21T15:45:21.889Z,10.40
2019-02-21T15:47:42.155Z,10.40
2019-02-21T15:50:15.282Z,10.40
2019-02-21T15:52:44.637Z,10.40
2019-02-21T15:55:14.674Z,10.40
2019-02-21T15:57:44.520Z,10.40
2019-02-21T16:00:16.793Z,10.40
2019-02-21T16:02:46.104Z,10.40
2019-02-21T16:05:15.439Z,10.30
2019-02-21T16:07:44.851Z,10.30
2019-02-21T16:10:16.441Z,10.30
2019-02-21T16:12:46.018Z,10.30
2019-02-21T16:15:16.380Z,10.20
2019-02-21T16:17:46.116Z,10.20
2019-02-21T16:20:15.459Z,10.20
2019-02-21T16:22:44.858Z,10.20
2019-02-21T16:25:16.144Z,10.20
2019-02-21T16:27:57.108Z,10.20
2019-02-21T16:30:26.999Z,10.20
2019-02-21T16:32:56.841Z,10.20
2019-02-21T16:35:27.479Z,10.20
2019-02-21T16:37:56.742Z,10.10
2019-02-21T16:40:25.961Z,10.10
2019-02-21T16:42:55.084Z,10.20
2019-02-21T16:45:24.269Z,10.10
2019-02-21T16:47:53.438Z,10.10
2019-02-21T16:50:29.582Z,10.10
2019-02-21T16:52:53.746Z,10.10
2019-02-21T16:55:23.061Z,10.10
2019-02-21T16:57:52.683Z,10.10
2019-02-21T17:00:21.811Z,10.10
2019-02-21T17:02:51.085Z,10.10
2019-02-21T17:05:20.817Z,10.10
2019-02-21T17:07:49.983Z,10.10
2019-02-21T17:10:19.210Z,10.10
2019-02-21T17:12:48.412Z,10.10
2019-02-21T17:15:17.493Z,10.10
2019-02-21T17:17:46.657Z,10.10
2019-02-21T17:20:16.660Z,10.00
2019-02-21T17:22:45.753Z,10.00
2019-02-21T17:25:15.321Z,10.00
2019-02-21T17:27:44.526Z,10.00
2019-02-21T17:30:15.684Z,10.00
2019-02-21T17:32:44.833Z,10.00
2019-02-21T17:35:14.061Z,9.90
2019-02-21T17:37:43.124Z,9.90
2019-02-21T17:40:15.444Z,9.90
2019-02-21T17:42:44.532Z,9.90
2019-02-21T17:45:14.329Z,9.90
2019-02-21T17:47:43.474Z,9.80
2019-02-21T17:50:13.486Z,9.80
2019-02-21T17:52:42.626Z,9.80
2019-02-21T17:55:12.093Z,9.80
2019-02-21T17:57:41.219Z,9.80
2019-02-21T18:00:17.250Z,9.80
2019-02-21T18:02:46.557Z,9.70
2019-02-21T18:05:15.955Z,9.70
2019-02-21T18:07:45.101Z,9.70
2019-02-21T18:10:14.284Z,9.70
2019-02-21T18:12:43.380Z,9.70
2019-02-21T18:15:13.221Z,9.70
2019-02-21T18:17:42.327Z,9.60
2019-02-21T18:20:11.720Z,9.50
2019-02-21T18:22:40.820Z,9.50
2019-02-21T18:25:13.653Z,9.50
2019-02-21T18:27:42.784Z,9.50
2019-02-21T18:30:13.685Z,9.50
2019-02-21T18:32:42.861Z,9.50
2019-02-21T18:35:12.187Z,9.40
2019-02-21T18:37:47.296Z,9.40
2019-02-21T18:40:17.770Z,9.50
2019-02-21T18:42:45.745Z,9.50
2019-02-21T18:45:15.248Z,9.50
2019-02-21T18:47:44.356Z,9.50
2019-02-21T18:50:13.577Z,9.50
2019-02-21T18:52:42.714Z,9.50
2019-02-21T18:55:11.790Z,9.50
2019-02-21T18:57:40.959Z,9.50
2019-02-21T19:00:11.733Z,9.50
2019-02-21T19:02:41.142Z,9.50
2019-02-21T19:05:12.414Z,9.50
2019-02-21T19:07:42.189Z,9.50
2019-02-21T19:10:14.139Z,9.60
2019-02-21T19:12:43.272Z,9.60
2019-02-21T19:15:13.154Z,9.50
2019-02-21T19:17:42.242Z,9.50
2019-02-21T19:20:11.723Z,9.50
2019-02-21T19:22:40.827Z,9.50
2019-02-21T19:25:10.148Z,9.50
2019-02-21T19:27:39.344Z,9.50
2019-02-21T19:30:12.444Z,9.50
2019-02-21T19:32:41.542Z,9.50
2019-02-21T19:35:10.725Z,9.40
2019-02-21T19:37:40.229Z,9.40
2019-02-21T19:40:09.506Z,9.40
2019-02-21T19:42:38.737Z,9.40
2019-02-21T19:45:08.304Z,9.30
2019-02-21T19:47:37.610Z,9.30
2019-02-21T19:50:06.849Z,9.30
2019-02-21T19:52:35.954Z,9.30
2019-02-21T19:55:05.271Z,9.30
2019-02-21T19:57:34.824Z,9.30
2019-02-21T20:00:04.657Z,9.20
2019-02-21T20:02:33.858Z,9.30
2019-02-21T20:05:03.132Z,9.20
2019-02-21T20:07:32.236Z,9.20
2019-02-21T20:10:01.319Z,9.20
2019-02-21T20:12:30.472Z,9.20
2019-02-21T20:14:59.662Z,9.20
2019-02-21T20:17:28.967Z,9.20
2019-02-21T20:19:58.145Z,9.20
2019-02-21T20:22:27.622Z,9.30
2019-02-21T20:24:57.068Z,9.20
2019-02-21T20:27:26.264Z,9.20
2019-02-21T20:29:55.361Z,9.30
2019-02-21T20:32:24.478Z,9.30
2019-02-21T20:34:53.585Z,9.30
2019-02-21T20:37:23.004Z,9.20
2019-02-21T20:39:54.948Z,9.20
2019-02-21T20:42:23.323Z,9.20
2019-02-21T20:44:52.517Z,9.20
2019-02-21T20:47:21.687Z,9.20
2019-02-21T20:49:51.189Z,9.20
2019-02-21T20:52:20.273Z,9.20
2019-02-21T20:54:49.509Z,9.20
2019-02-21T20:57:18.740Z,9.20
2019-02-21T20:59:47.906Z,9.20
2019-02-21T21:02:17.109Z,9.20
2019-02-21T21:04:46.258Z,9.20
2019-02-21T21:07:24.734Z,9.20
2019-02-21T21:09:46.175Z,9.20
2019-02-21T21:12:15.345Z,9.20
2019-02-21T21:14:47.140Z,9.20
2019-02-21T21:17:16.842Z,9.20
2019-02-21T21:19:46.084Z,9.30
2019-02-21T21:22:15.185Z,9.30
2019-02-21T21:24:44.374Z,9.30
2019-02-21T21:27:13.584Z,9.30
2019-02-21T21:29:42.694Z,9.30
2019-02-21T21:32:11.869Z,9.30
2019-02-21T21:34:40.964Z,9.30
2019-02-21T21:37:10.062Z,9.30
2019-02-21T21:39:39.559Z,9.40
2019-02-21T21:42:08.671Z,9.30
2019-02-21T21:44:37.807Z,9.40
2019-02-21T21:47:06.900Z,9.30
2019-02-21T21:49:35.997Z,9.40
2019-02-21T21:52:05.292Z,9.40
2019-02-21T21:54:34.710Z,9.40
2019-02-21T21:57:03.884Z,9.40
2019-02-21T21:59:35.545Z,9.30
2019-02-21T22:02:04.796Z,9.30
2019-02-21T22:04:34.221Z,9.30
2019-02-21T22:07:03.425Z,9.30
2019-02-21T22:09:32.796Z,9.30
2019-02-21T22:12:02.255Z,9.30
2019-02-21T22:14:31.334Z,9.30
2019-02-21T22:17:00.517Z,9.40
2019-02-21T22:19:30.761Z,9.50
2019-02-21T22:21:59.909Z,9.50
2019-02-21T22:24:29.101Z,9.50
2019-02-21T22:26:58.776Z,9.50
2019-02-21T22:29:28.698Z,9.50
2019-02-21T22:31:57.886Z,9.60
2019-02-21T22:34:27.152Z,9.70
2019-02-21T22:36:56.336Z,9.70
2019-02-21T22:39:25.461Z,9.70
2019-02-21T22:41:54.755Z,9.70
2019-02-21T22:44:25.685Z,9.70
2019-02-21T22:46:56.124Z,9.80
2019-02-21T22:49:25.268Z,9.70
2019-02-21T22:51:54.361Z,9.70
2019-02-21T22:54:24.241Z,9.70
2019-02-21T22:56:53.355Z,9.60
2019-02-21T22:59:22.555Z,9.60
2019-02-21T23:01:52.341Z,9.50
2019-02-21T23:05:05.554Z,9.50
2019-02-21T23:07:53.945Z,9.40
2019-02-21T23:10:23.053Z,9.40
2019-02-21T23:12:52.245Z,9.30
2019-02-21T23:15:21.423Z,9.30
2019-02-21T23:17:50.821Z,9.50
2019-02-21T23:20:19.929Z,9.60
2019-02-21T23:22:49.286Z,9.60
2019-02-21T23:25:18.393Z,9.60
2019-02-21T23:27:47.524Z,9.50
2019-02-21T23:30:16.680Z,9.40
2019-02-21T23:32:45.820Z,9.40
2019-02-21T23:35:18.809Z,9.40
2019-02-21T23:37:47.929Z,9.50
2019-02-21T23:40:17.082Z,9.50
2019-02-21T23:42:46.274Z,9.50
2019-02-21T23:45:15.970Z,9.50
2019-02-21T23:47:49.852Z,9.50
2019-02-21T23:50:16.195Z,9.40
2019-02-21T23:52:45.313Z,9.30
2019-02-21T23:55:14.433Z,9.40
2019-02-21T23:57:43.593Z,9.30
